sensor_id;sensor_type;location;lat;lon;timestamp;temperature;humidity
66594;DHT22;53450;42.584;23.366;2022-12-29T00:01:08;1.56;87.56
66594;DHT22;53450;42.584;23.366;2022-12-29T00:03:36;1.45;87.43
66594;DHT22;53450;42.584;23.366;2022-12-29T00:06:05;1.39;87.61
66594;DHT22;53450;42.584;23.366;2022-12-29T00:08:34;1.34;87.71
66594;DHT22;53450;42.584;23.366;2022-12-29T00:11:20;1.17;87.77
66594;DHT22;53450;42.584;23.366;2022-12-29T00:13:49;1.47;87.51
66594;DHT22;53450;42.584;23.366;2022-12-29T00:16:44;1.44;86.85
66594;DHT22;53450;42.584;23.366;2022-12-29T00:19:11;1.44;87.13
66594;DHT22;53450;42.584;23.366;2022-12-29T00:21:58;1.38;87.26
66594;DHT22;53450;42.584;23.366;2022-12-29T00:24:43;1.35;87.58
66594;DHT22;53450;42.584;23.366;2022-12-29T00:27:19;1.42;87.44
66594;DHT22;53450;42.584;23.366;2022-12-29T00:30:08;1.39;87.47
66594;DHT22;53450;42.584;23.366;2022-12-29T00:32:53;1.44;86.36
66594;DHT22;53450;42.584;23.366;2022-12-29T00:35:43;1.35;86.53
66594;DHT22;53450;42.584;23.366;2022-12-29T00:38:10;1.26;87.00
66594;DHT22;53450;42.584;23.366;2022-12-29T00:40:55;1.34;86.67
66594;DHT22;53450;42.584;23.366;2022-12-29T00:43:39;1.11;86.86
66594;DHT22;53450;42.584;23.366;2022-12-29T00:46:27;1.26;87.03
66594;DHT22;53450;42.584;23.366;2022-12-29T00:48:52;1.21;86.85
66594;DHT22;53450;42.584;23.366;2022-12-29T00:51:36;1.10;87.24
66594;DHT22;53450;42.584;23.366;2022-12-29T00:54:02;1.27;87.00
66594;DHT22;53450;42.584;23.366;2022-12-29T00:56:27;1.26;86.85
66594;DHT22;53450;42.584;23.366;2022-12-29T00:58:53;1.04;86.93
66594;DHT22;53450;42.584;23.366;2022-12-29T01:01:19;1.05;87.40
66594;DHT22;53450;42.584;23.366;2022-12-29T01:03:44;1.14;87.13
66594;DHT22;53450;42.584;23.366;2022-12-29T01:06:14;1.10;87.25
66594;DHT22;53450;42.584;23.366;2022-12-29T01:08:40;1.14;87.34
66594;DHT22;53450;42.584;23.366;2022-12-29T01:11:11;1.23;86.90
66594;DHT22;53450;42.584;23.366;2022-12-29T01:13:37;1.07;87.01
66594;DHT22;53450;42.584;23.366;2022-12-29T01:16:05;1.13;87.19
66594;DHT22;53450;42.584;23.366;2022-12-29T01:18:31;1.10;86.88
66594;DHT22;53450;42.584;23.366;2022-12-29T01:21:04;1.04;87.18
66594;DHT22;53450;42.584;23.366;2022-12-29T01:23:30;1.11;87.00
66594;DHT22;53450;42.584;23.366;2022-12-29T01:26:09;1.03;87.40
66594;DHT22;53450;42.584;23.366;2022-12-29T01:28:39;0.91;87.78
66594;DHT22;53450;42.584;23.366;2022-12-29T01:31:06;0.90;87.90
66594;DHT22;53450;42.584;23.366;2022-12-29T01:33:32;1.00;86.77
66594;DHT22;53450;42.584;23.366;2022-12-29T01:36:04;0.94;86.55
66594;DHT22;53450;42.584;23.366;2022-12-29T01:38:31;0.90;86.62
66594;DHT22;53450;42.584;23.366;2022-12-29T01:40:57;0.84;86.71
66594;DHT22;53450;42.584;23.366;2022-12-29T01:46:34;0.83;86.98
66594;DHT22;53450;42.584;23.366;2022-12-29T01:51:30;0.59;87.50
66594;DHT22;53450;42.584;23.366;2022-12-29T01:53:57;0.67;87.64
66594;DHT22;53450;42.584;23.366;2022-12-29T01:56:24;0.70;87.10
66594;DHT22;53450;42.584;23.366;2022-12-29T01:59:02;0.65;87.21
66594;DHT22;53450;42.584;23.366;2022-12-29T02:01:29;0.63;87.54
66594;DHT22;53450;42.584;23.366;2022-12-29T02:04:22;0.58;87.79
66594;DHT22;53450;42.584;23.366;2022-12-29T02:07:18;0.73;87.61
66594;DHT22;53450;42.584;23.366;2022-12-29T02:10:09;0.65;87.26
66594;DHT22;53450;42.584;23.366;2022-12-29T02:13:00;0.72;87.30
66594;DHT22;53450;42.584;23.366;2022-12-29T02:40:26;0.69;86.98
66594;DHT22;53450;42.584;23.366;2022-12-29T02:48:30;0.66;87.39
66594;DHT22;53450;42.584;23.366;2022-12-29T02:51:10;0.56;87.63
66594;DHT22;53450;42.584;23.366;2022-12-29T02:53:38;0.76;87.55
66594;DHT22;53450;42.584;23.366;2022-12-29T02:56:23;0.75;87.62
66594;DHT22;53450;42.584;23.366;2022-12-29T02:58:48;0.79;87.78
66594;DHT22;53450;42.584;23.366;2022-12-29T03:01:23;0.77;87.91
66594;DHT22;53450;42.584;23.366;2022-12-29T03:07:20;0.94;87.59
66594;DHT22;53450;42.584;23.366;2022-12-29T03:15:52;1.05;87.71
66594;DHT22;53450;42.584;23.366;2022-12-29T03:19:13;1.17;87.46
66594;DHT22;53450;42.584;23.366;2022-12-29T03:21:46;1.01;87.45
66594;DHT22;53450;42.584;23.366;2022-12-29T03:24:41;0.83;87.53
66594;DHT22;53450;42.584;23.366;2022-12-29T03:27:13;0.86;87.55
66594;DHT22;53450;42.584;23.366;2022-12-29T03:29:46;0.94;87.28
66594;DHT22;53450;42.584;23.366;2022-12-29T03:32:19;1.03;86.31
66594;DHT22;53450;42.584;23.366;2022-12-29T03:34:48;1.08;86.29
66594;DHT22;53450;42.584;23.366;2022-12-29T03:37:18;1.04;85.65
66594;DHT22;53450;42.584;23.366;2022-12-29T03:39:44;1.05;85.69
66594;DHT22;53450;42.584;23.366;2022-12-29T03:42:14;0.96;85.87
66594;DHT22;53450;42.584;23.366;2022-12-29T03:44:43;0.94;86.12
66594;DHT22;53450;42.584;23.366;2022-12-29T03:47:13;0.80;86.45
66594;DHT22;53450;42.584;23.366;2022-12-29T03:49:39;0.75;86.34
66594;DHT22;53450;42.584;23.366;2022-12-29T03:52:07;0.63;86.48
66594;DHT22;53450;42.584;23.366;2022-12-29T03:54:38;0.66;86.99
66594;DHT22;53450;42.584;23.366;2022-12-29T03:57:05;0.69;86.68
66594;DHT22;53450;42.584;23.366;2022-12-29T03:59:44;0.59;86.43
66594;DHT22;53450;42.584;23.366;2022-12-29T04:02:10;0.59;86.71
66594;DHT22;53450;42.584;23.366;2022-12-29T04:04:36;0.46;87.05
66594;DHT22;53450;42.584;23.366;2022-12-29T04:07:02;0.48;87.24
66594;DHT22;53450;42.584;23.366;2022-12-29T04:09:28;0.48;87.31
66594;DHT22;53450;42.584;23.366;2022-12-29T04:12:20;0.35;87.44
66594;DHT22;53450;42.584;23.366;2022-12-29T04:14:46;0.35;87.56
66594;DHT22;53450;42.584;23.366;2022-12-29T04:17:11;0.32;87.68
66594;DHT22;53450;42.584;23.366;2022-12-29T04:19:38;0.26;87.86
66594;DHT22;53450;42.584;23.366;2022-12-29T04:22:04;0.26;87.89
66594;DHT22;53450;42.584;23.366;2022-12-29T04:24:31;0.29;87.77
66594;DHT22;53450;42.584;23.366;2022-12-29T04:26:56;0.29;87.73
66594;DHT22;53450;42.584;23.366;2022-12-29T04:29:42;0.29;87.61
66594;DHT22;53450;42.584;23.366;2022-12-29T04:32:26;0.26;87.34
66594;DHT22;53450;42.584;23.366;2022-12-29T04:34:54;0.22;87.40
66594;DHT22;53450;42.584;23.366;2022-12-29T04:37:20;0.25;87.54
66594;DHT22;53450;42.584;23.366;2022-12-29T04:39:45;0.18;87.66
66594;DHT22;53450;42.584;23.366;2022-12-29T04:42:11;0.11;87.93
66594;DHT22;53450;42.584;23.366;2022-12-29T04:44:37;0.37;88.20
66594;DHT22;53450;42.584;23.366;2022-12-29T04:47:17;0.48;87.65
66594;DHT22;53450;42.584;23.366;2022-12-29T04:50:01;0.49;87.39
66594;DHT22;53450;42.584;23.366;2022-12-29T04:52:47;0.53;87.35
66594;DHT22;53450;42.584;23.366;2022-12-29T04:55:13;0.60;87.03
66594;DHT22;53450;42.584;23.366;2022-12-29T04:57:40;0.56;86.19
66594;DHT22;53450;42.584;23.366;2022-12-29T05:00:07;0.52;86.48
66594;DHT22;53450;42.584;23.366;2022-12-29T05:02:36;0.44;86.74
66594;DHT22;53450;42.584;23.366;2022-12-29T05:05:02;0.39;87.08
66594;DHT22;53450;42.584;23.366;2022-12-29T05:07:29;0.44;87.32
66594;DHT22;53450;42.584;23.366;2022-12-29T05:10:20;0.44;87.30
66594;DHT22;53450;42.584;23.366;2022-12-29T05:13:12;0.45;87.63
66594;DHT22;53450;42.584;23.366;2022-12-29T05:15:38;0.53;87.74
66594;DHT22;53450;42.584;23.366;2022-12-29T05:18:04;0.53;87.74
66594;DHT22;53450;42.584;23.366;2022-12-29T05:20:29;0.48;87.93
66594;DHT22;53450;42.584;23.366;2022-12-29T05:22:56;0.25;88.10
66594;DHT22;53450;42.584;23.366;2022-12-29T05:25:22;0.24;88.36
66594;DHT22;53450;42.584;23.366;2022-12-29T05:28:03;0.50;88.24
66594;DHT22;53450;42.584;23.366;2022-12-29T05:30:42;0.63;87.69
66594;DHT22;53450;42.584;23.366;2022-12-29T05:33:08;0.67;87.65
66594;DHT22;53450;42.584;23.366;2022-12-29T05:35:36;0.50;87.70
66594;DHT22;53450;42.584;23.366;2022-12-29T05:38:02;0.67;87.54
66594;DHT22;53450;42.584;23.366;2022-12-29T05:40:27;0.67;87.41
66594;DHT22;53450;42.584;23.366;2022-12-29T05:42:57;0.60;87.65
66594;DHT22;53450;42.584;23.366;2022-12-29T05:45:48;0.75;87.44
66594;DHT22;53450;42.584;23.366;2022-12-29T05:48:33;0.70;87.45
66594;DHT22;53450;42.584;23.366;2022-12-29T05:51:24;0.76;87.31
66594;DHT22;53450;42.584;23.366;2022-12-29T05:53:51;0.73;87.21
66594;DHT22;53450;42.584;23.366;2022-12-29T05:56:17;0.79;87.52
66594;DHT22;53450;42.584;23.366;2022-12-29T05:58:45;0.80;87.39
66594;DHT22;53450;42.584;23.366;2022-12-29T06:01:11;0.81;87.62
66594;DHT22;53450;42.584;23.366;2022-12-29T06:03:36;0.91;87.71
66594;DHT22;53450;42.584;23.366;2022-12-29T06:06:02;0.93;87.09
66594;DHT22;53450;42.584;23.366;2022-12-29T06:08:28;0.83;87.41
66594;DHT22;53450;42.584;23.366;2022-12-29T06:10:53;0.86;87.69
66594;DHT22;53450;42.584;23.366;2022-12-29T06:13:19;0.72;87.86
66594;DHT22;53450;42.584;23.366;2022-12-29T06:15:48;0.86;87.96
66594;DHT22;53450;42.584;23.366;2022-12-29T06:18:15;0.91;87.74
66594;DHT22;53450;42.584;23.366;2022-12-29T06:20:40;0.87;87.79
66594;DHT22;53450;42.584;23.366;2022-12-29T06:23:07;0.79;87.95
66594;DHT22;53450;42.584;23.366;2022-12-29T06:25:33;0.81;88.15
66594;DHT22;53450;42.584;23.366;2022-12-29T06:27:59;0.97;88.38
66594;DHT22;53450;42.584;23.366;2022-12-29T06:30:25;0.94;88.24
66594;DHT22;53450;42.584;23.366;2022-12-29T06:32:50;1.10;87.84
66594;DHT22;53450;42.584;23.366;2022-12-29T06:35:17;1.11;86.83
66594;DHT22;53450;42.584;23.366;2022-12-29T06:37:48;1.17;86.78
66594;DHT22;53450;42.584;23.366;2022-12-29T06:40:14;1.05;87.09
66594;DHT22;53450;42.584;23.366;2022-12-29T06:43:00;1.16;87.13
66594;DHT22;53450;42.584;23.366;2022-12-29T06:45:44;1.21;87.20
66594;DHT22;53450;42.584;23.366;2022-12-29T06:48:10;1.26;86.87
66594;DHT22;53450;42.584;23.366;2022-12-29T06:50:35;1.11;87.07
66594;DHT22;53450;42.584;23.366;2022-12-29T06:53:01;0.91;87.97
66594;DHT22;53450;42.584;23.366;2022-12-29T06:55:26;1.04;87.86
66594;DHT22;53450;42.584;23.366;2022-12-29T06:57:57;1.17;87.52
66594;DHT22;53450;42.584;23.366;2022-12-29T07:00:23;1.30;86.92
66594;DHT22;53450;42.584;23.366;2022-12-29T07:02:49;1.45;86.98
66594;DHT22;53450;42.584;23.366;2022-12-29T07:05:14;1.52;87.12
66594;DHT22;53450;42.584;23.366;2022-12-29T07:07:40;1.48;87.20
66594;DHT22;53450;42.584;23.366;2022-12-29T07:10:06;1.72;86.82
66594;DHT22;53450;42.584;23.366;2022-12-29T07:12:31;1.80;84.77
66594;DHT22;53450;42.584;23.366;2022-12-29T07:14:57;1.82;85.13
66594;DHT22;53450;42.584;23.366;2022-12-29T07:17:22;1.87;85.35
66594;DHT22;53450;42.584;23.366;2022-12-29T07:19:51;1.89;85.38
66594;DHT22;53450;42.584;23.366;2022-12-29T07:22:16;1.95;85.72
66594;DHT22;53450;42.584;23.366;2022-12-29T07:24:42;2.05;86.40
66594;DHT22;53450;42.584;23.366;2022-12-29T07:27:08;2.14;86.74
66594;DHT22;53450;42.584;23.366;2022-12-29T07:29:36;2.26;84.75
66594;DHT22;53450;42.584;23.366;2022-12-29T07:32:02;2.34;85.68
66594;DHT22;53450;42.584;23.366;2022-12-29T07:34:28;2.45;86.67
66594;DHT22;53450;42.584;23.366;2022-12-29T07:36:53;2.55;84.51
66594;DHT22;53450;42.584;23.366;2022-12-29T07:39:19;2.57;86.01
66594;DHT22;53450;42.584;23.366;2022-12-29T07:41:44;2.61;87.12
66594;DHT22;53450;42.584;23.366;2022-12-29T07:44:15;2.66;87.12
66594;DHT22;53450;42.584;23.366;2022-12-29T07:47:02;2.64;86.93
66594;DHT22;53450;42.584;23.366;2022-12-29T07:49:27;2.78;86.78
66594;DHT22;53450;42.584;23.366;2022-12-29T07:51:53;2.69;86.57
66594;DHT22;53450;42.584;23.366;2022-12-29T07:54:18;2.82;86.57
66594;DHT22;53450;42.584;23.366;2022-12-29T07:56:45;2.99;85.76
66594;DHT22;53450;42.584;23.366;2022-12-29T07:59:13;3.02;85.89
66594;DHT22;53450;42.584;23.366;2022-12-29T08:01:38;3.00;86.49
66594;DHT22;53450;42.584;23.366;2022-12-29T08:04:05;2.91;86.78
66594;DHT22;53450;42.584;23.366;2022-12-29T08:06:30;3.16;86.07
66594;DHT22;53450;42.584;23.366;2022-12-29T08:08:56;3.40;85.76
66594;DHT22;53450;42.584;23.366;2022-12-29T08:11:22;3.65;85.26
66594;DHT22;53450;42.584;23.366;2022-12-29T08:13:48;3.71;84.21
66594;DHT22;53450;42.584;23.366;2022-12-29T08:16:13;3.75;83.86
66594;DHT22;53450;42.584;23.366;2022-12-29T08:18:39;3.77;84.22
66594;DHT22;53450;42.584;23.366;2022-12-29T08:21:05;3.77;84.68
66594;DHT22;53450;42.584;23.366;2022-12-29T08:23:31;3.77;84.82
66594;DHT22;53450;42.584;23.366;2022-12-29T08:26:00;3.92;84.89
66594;DHT22;53450;42.584;23.366;2022-12-29T08:28:26;3.91;85.18
66594;DHT22;53450;42.584;23.366;2022-12-29T08:30:52;3.95;85.29
66594;DHT22;53450;42.584;23.366;2022-12-29T08:33:18;3.92;85.40
66594;DHT22;53450;42.584;23.366;2022-12-29T08:35:44;3.81;85.76
66594;DHT22;53450;42.584;23.366;2022-12-29T08:38:09;3.79;85.85
66594;DHT22;53450;42.584;23.366;2022-12-29T08:40:37;3.91;85.77
66594;DHT22;53450;42.584;23.366;2022-12-29T08:43:02;4.09;84.84
66594;DHT22;53450;42.584;23.366;2022-12-29T08:45:28;4.22;84.61
66594;DHT22;53450;42.584;23.366;2022-12-29T08:47:53;4.12;84.99
66594;DHT22;53450;42.584;23.366;2022-12-29T08:50:19;3.99;85.32
66594;DHT22;53450;42.584;23.366;2022-12-29T08:52:44;4.07;85.36
66594;DHT22;53450;42.584;23.366;2022-12-29T08:55:10;4.22;85.17
66594;DHT22;53450;42.584;23.366;2022-12-29T08:58:01;4.39;84.58
66594;DHT22;53450;42.584;23.366;2022-12-29T09:00:57;4.53;84.50
66594;DHT22;53450;42.584;23.366;2022-12-29T09:03:24;4.68;83.73
66594;DHT22;53450;42.584;23.366;2022-12-29T09:05:53;4.75;83.46
66594;DHT22;53450;42.584;23.366;2022-12-29T09:08:19;5.11;82.76
66594;DHT22;53450;42.584;23.366;2022-12-29T09:10:45;5.07;82.54
66594;DHT22;53450;42.584;23.366;2022-12-29T09:13:12;4.95;82.53
66594;DHT22;53450;42.584;23.366;2022-12-29T09:15:38;4.84;83.19
66594;DHT22;53450;42.584;23.366;2022-12-29T09:18:09;4.92;83.28
66594;DHT22;53450;42.584;23.366;2022-12-29T09:20:34;4.80;83.56
66594;DHT22;53450;42.584;23.366;2022-12-29T09:23:00;5.07;82.97
66594;DHT22;53450;42.584;23.366;2022-12-29T09:25:29;5.07;82.72
66594;DHT22;53450;42.584;23.366;2022-12-29T09:27:57;5.04;82.78
66594;DHT22;53450;42.584;23.366;2022-12-29T09:30:25;5.12;83.07
66594;DHT22;53450;42.584;23.366;2022-12-29T09:32:50;5.18;82.69
66594;DHT22;53450;42.584;23.366;2022-12-29T09:35:16;5.19;82.19
66594;DHT22;53450;42.584;23.366;2022-12-29T09:38:07;5.28;82.04
66594;DHT22;53450;42.584;23.366;2022-12-29T09:41:20;5.29;81.75
66594;DHT22;53450;42.584;23.366;2022-12-29T09:44:23;5.25;82.16
66594;DHT22;53450;42.584;23.366;2022-12-29T09:46:53;5.33;81.66
66594;DHT22;53450;42.584;23.366;2022-12-29T09:52:48;5.42;81.06
66594;DHT22;53450;42.584;23.366;2022-12-29T09:55:33;5.52;81.03
66594;DHT22;53450;42.584;23.366;2022-12-29T09:58:04;5.49;81.12
66594;DHT22;53450;42.584;23.366;2022-12-29T10:00:43;5.54;81.21
66594;DHT22;53450;42.584;23.366;2022-12-29T10:03:19;5.75;80.17
66594;DHT22;53450;42.584;23.366;2022-12-29T10:05:50;5.86;80.03
66594;DHT22;53450;42.584;23.366;2022-12-29T10:08:48;5.84;79.90
66594;DHT22;53450;42.584;23.366;2022-12-29T10:14:12;6.07;79.16
66594;DHT22;53450;42.584;23.366;2022-12-29T10:22:03;6.33;77.91
66594;DHT22;53450;42.584;23.366;2022-12-29T10:24:34;6.35;76.92
66594;DHT22;53450;42.584;23.366;2022-12-29T10:27:01;6.60;76.83
66594;DHT22;53450;42.584;23.366;2022-12-29T10:29:37;6.52;76.81
66594;DHT22;53450;42.584;23.366;2022-12-29T10:32:09;6.32;77.47
66594;DHT22;53450;42.584;23.366;2022-12-29T10:34:45;6.39;77.15
66594;DHT22;53450;42.584;23.366;2022-12-29T10:37:46;6.75;76.14
66594;DHT22;53450;42.584;23.366;2022-12-29T10:40:31;7.05;75.54
66594;DHT22;53450;42.584;23.366;2022-12-29T10:42:59;7.39;74.36
66594;DHT22;53450;42.584;23.366;2022-12-29T10:45:30;7.39;73.33
66594;DHT22;53450;42.584;23.366;2022-12-29T10:48:00;7.28;73.79
66594;DHT22;53450;42.584;23.366;2022-12-29T10:50:27;7.34;73.68
66594;DHT22;53450;42.584;23.366;2022-12-29T10:52:56;7.41;73.88
66594;DHT22;53450;42.584;23.366;2022-12-29T10:55:27;7.35;73.36
66594;DHT22;53450;42.584;23.366;2022-12-29T10:57:55;7.45;73.24
66594;DHT22;53450;42.584;23.366;2022-12-29T11:00:23;7.52;72.55
66594;DHT22;53450;42.584;23.366;2022-12-29T11:08:20;7.86;72.26
66594;DHT22;53450;42.584;23.366;2022-12-29T11:11:03;7.78;72.11
66594;DHT22;53450;42.584;23.366;2022-12-29T11:13:31;7.93;71.42
66594;DHT22;53450;42.584;23.366;2022-12-29T11:15:57;8.03;71.05
66594;DHT22;53450;42.584;23.366;2022-12-29T11:18:31;8.24;71.06
66594;DHT22;53450;42.584;23.366;2022-12-29T11:21:34;8.20;70.95
66594;DHT22;53450;42.584;23.366;2022-12-29T11:24:30;8.19;70.89
66594;DHT22;53450;42.584;23.366;2022-12-29T11:27:17;8.33;70.80
66594;DHT22;53450;42.584;23.366;2022-12-29T11:29:43;8.41;70.15
66594;DHT22;53450;42.584;23.366;2022-12-29T11:32:22;8.55;69.39
66594;DHT22;53450;42.584;23.366;2022-12-29T11:34:51;8.42;69.56
66594;DHT22;53450;42.584;23.366;2022-12-29T11:37:31;8.57;69.63
66594;DHT22;53450;42.584;23.366;2022-12-29T11:40:05;8.40;69.36
66594;DHT22;53450;42.584;23.366;2022-12-29T11:42:46;8.52;69.42
66594;DHT22;53450;42.584;23.366;2022-12-29T11:45:45;8.64;68.94
66594;DHT22;53450;42.584;23.366;2022-12-29T11:48:20;8.41;70.02
66594;DHT22;53450;42.584;23.366;2022-12-29T11:50:57;8.14;69.94
66594;DHT22;53450;42.584;23.366;2022-12-29T11:53:32;7.97;70.85
66594;DHT22;53450;42.584;23.366;2022-12-29T11:56:06;7.76;71.49
66594;DHT22;53450;42.584;23.366;2022-12-29T11:58:58;7.58;71.70
66594;DHT22;53450;42.584;23.366;2022-12-29T12:02:35;7.61;72.08
66594;DHT22;53450;42.584;23.366;2022-12-29T12:05:17;7.59;72.15
66594;DHT22;53450;42.584;23.366;2022-12-29T12:07:48;7.62;71.83
66594;DHT22;53450;42.584;23.366;2022-12-29T12:10:31;7.63;72.23
66594;DHT22;53450;42.584;23.366;2022-12-29T12:15:58;7.58;72.17
66594;DHT22;53450;42.584;23.366;2022-12-29T12:18:56;7.55;72.04
66594;DHT22;53450;42.584;23.366;2022-12-29T12:21:40;7.48;72.58
66594;DHT22;53450;42.584;23.366;2022-12-29T12:29:43;7.42;72.49
66594;DHT22;53450;42.584;23.366;2022-12-29T12:32:13;7.41;72.64
66594;DHT22;53450;42.584;23.366;2022-12-29T12:34:44;7.31;73.00
66594;DHT22;53450;42.584;23.366;2022-12-29T12:50:18;7.54;72.36
66594;DHT22;53450;42.584;23.366;2022-12-29T12:55:46;7.45;72.51
66594;DHT22;53450;42.584;23.366;2022-12-29T12:58:39;7.47;72.46
66594;DHT22;53450;42.584;23.366;2022-12-29T13:22:51;7.70;71.69
66594;DHT22;53450;42.584;23.366;2022-12-29T13:37:04;7.66;72.13
66594;DHT22;53450;42.584;23.366;2022-12-29T13:40:01;7.49;72.37
66594;DHT22;53450;42.584;23.366;2022-12-29T13:42:29;7.47;72.37
66594;DHT22;53450;42.584;23.366;2022-12-29T13:45:00;7.47;72.49
66594;DHT22;53450;42.584;23.366;2022-12-29T13:50:26;7.69;71.89
66594;DHT22;53450;42.584;23.366;2022-12-29T13:59:33;7.18;73.24
66594;DHT22;53450;42.584;23.366;2022-12-29T14:04:59;7.20;73.52
66594;DHT22;53450;42.584;23.366;2022-12-29T14:07:25;7.18;73.63
66594;DHT22;53450;42.584;23.366;2022-12-29T14:09:53;7.12;73.80
66594;DHT22;53450;42.584;23.366;2022-12-29T14:15:06;6.66;74.89
66594;DHT22;53450;42.584;23.366;2022-12-29T14:17:42;6.53;75.27
66594;DHT22;53450;42.584;23.366;2022-12-29T14:20:34;6.36;75.85
66594;DHT22;53450;42.584;23.366;2022-12-29T14:23:40;6.08;75.95
66594;DHT22;53450;42.584;23.366;2022-12-29T14:28:36;5.74;76.67
66594;DHT22;53450;42.584;23.366;2022-12-29T14:36:36;5.23;78.01
66594;DHT22;53450;42.584;23.366;2022-12-29T14:39:02;5.16;78.28
66594;DHT22;53450;42.584;23.366;2022-12-29T14:41:41;5.12;78.77
66594;DHT22;53450;42.584;23.366;2022-12-29T14:46:46;5.08;78.23
66594;DHT22;53450;42.584;23.366;2022-12-29T14:49:16;5.05;78.15
66594;DHT22;53450;42.584;23.366;2022-12-29T14:51:43;5.01;78.45
66594;DHT22;53450;42.584;23.366;2022-12-29T14:54:43;5.07;78.41
66594;DHT22;53450;42.584;23.366;2022-12-29T14:57:32;5.02;78.16
66594;DHT22;53450;42.584;23.366;2022-12-29T15:00:14;4.87;78.67
66594;DHT22;53450;42.584;23.366;2022-12-29T15:02:40;4.68;79.34
66594;DHT22;53450;42.584;23.366;2022-12-29T15:05:37;4.53;79.55
66594;DHT22;53450;42.584;23.366;2022-12-29T15:08:06;4.37;80.18
66594;DHT22;53450;42.584;23.366;2022-12-29T15:10:40;4.29;80.94
66594;DHT22;53450;42.584;23.366;2022-12-29T15:13:21;4.28;81.17
66594;DHT22;53450;42.584;23.366;2022-12-29T15:15:47;4.17;81.14
66594;DHT22;53450;42.584;23.366;2022-12-29T15:18:30;4.12;81.75
66594;DHT22;53450;42.584;23.366;2022-12-29T15:21:05;4.09;81.59
66594;DHT22;53450;42.584;23.366;2022-12-29T15:23:32;4.13;81.81
66594;DHT22;53450;42.584;23.366;2022-12-29T15:26:01;4.02;81.34
66594;DHT22;53450;42.584;23.366;2022-12-29T15:28:37;3.96;82.00
66594;DHT22;53450;42.584;23.366;2022-12-29T15:31:06;4.01;81.77
66594;DHT22;53450;42.584;23.366;2022-12-29T15:33:39;4.02;81.41
66594;DHT22;53450;42.584;23.366;2022-12-29T15:36:25;3.88;80.94
66594;DHT22;53450;42.584;23.366;2022-12-29T15:38:51;3.79;81.08
66594;DHT22;53450;42.584;23.366;2022-12-29T15:41:26;3.77;81.17
66594;DHT22;53450;42.584;23.366;2022-12-29T15:44:16;3.67;81.68
66594;DHT22;53450;42.584;23.366;2022-12-29T15:46:42;3.61;81.61
66594;DHT22;53450;42.584;23.366;2022-12-29T15:49:08;3.51;81.85
66594;DHT22;53450;42.584;23.366;2022-12-29T15:51:37;3.44;82.45
66594;DHT22;53450;42.584;23.366;2022-12-29T15:54:04;3.41;82.23
66594;DHT22;53450;42.584;23.366;2022-12-29T15:56:31;3.40;82.14
66594;DHT22;53450;42.584;23.366;2022-12-29T15:58:58;3.30;82.22
66594;DHT22;53450;42.584;23.366;2022-12-29T16:01:32;3.24;81.66
66594;DHT22;53450;42.584;23.366;2022-12-29T16:04:00;3.22;81.32
66594;DHT22;53450;42.584;23.366;2022-12-29T16:09:04;3.07;82.53
66594;DHT22;53450;42.584;23.366;2022-12-29T16:12:00;3.24;82.19
66594;DHT22;53450;42.584;23.366;2022-12-29T16:14:33;3.22;82.11
66594;DHT22;53450;42.584;23.366;2022-12-29T16:17:02;3.16;82.25
66594;DHT22;53450;42.584;23.366;2022-12-29T16:19:37;3.15;82.64
66594;DHT22;53450;42.584;23.366;2022-12-29T16:22:11;3.20;81.62
66594;DHT22;53450;42.584;23.366;2022-12-29T16:24:39;2.85;81.88
66594;DHT22;53450;42.584;23.366;2022-12-29T16:27:21;2.68;82.74
66594;DHT22;53450;42.584;23.366;2022-12-29T16:29:53;2.62;83.23
66594;DHT22;53450;42.584;23.366;2022-12-29T16:32:29;2.64;83.48
66594;DHT22;53450;42.584;23.366;2022-12-29T16:35:18;2.65;83.48
66594;DHT22;53450;42.584;23.366;2022-12-29T16:37:45;2.68;82.94
66594;DHT22;53450;42.584;23.366;2022-12-29T16:50:37;2.49;83.56
66594;DHT22;53450;42.584;23.366;2022-12-29T16:53:04;2.58;82.63
66594;DHT22;53450;42.584;23.366;2022-12-29T16:55:30;2.51;83.00
66594;DHT22;53450;42.584;23.366;2022-12-29T16:57:57;2.58;82.40
66594;DHT22;53450;42.584;23.366;2022-12-29T17:00:26;2.64;82.33
66594;DHT22;53450;42.584;23.366;2022-12-29T17:04:29;2.55;83.74
66594;DHT22;53450;42.584;23.366;2022-12-29T17:06:54;2.58;83.66
66594;DHT22;53450;42.584;23.366;2022-12-29T17:09:25;2.61;84.17
66594;DHT22;53450;42.584;23.366;2022-12-29T17:11:57;2.55;84.18
66594;DHT22;53450;42.584;23.366;2022-12-29T17:14:34;2.52;84.08
66594;DHT22;53450;42.584;23.366;2022-12-29T17:17:00;2.62;84.50
66594;DHT22;53450;42.584;23.366;2022-12-29T17:19:32;2.64;84.04
66594;DHT22;53450;42.584;23.366;2022-12-29T17:21:59;2.61;84.24
66594;DHT22;53450;42.584;23.366;2022-12-29T17:24:25;2.59;84.27
66594;DHT22;53450;42.584;23.366;2022-12-29T17:26:57;2.69;83.83
66594;DHT22;53450;42.584;23.366;2022-12-29T17:29:29;2.74;83.18
66594;DHT22;53450;42.584;23.366;2022-12-29T17:31:55;2.68;83.74
66594;DHT22;53450;42.584;23.366;2022-12-29T17:34:21;2.61;83.91
66594;DHT22;53450;42.584;23.366;2022-12-29T17:36:47;2.72;83.59
66594;DHT22;53450;42.584;23.366;2022-12-29T17:39:12;2.76;83.68
66594;DHT22;53450;42.584;23.366;2022-12-29T17:41:38;2.74;83.70
66594;DHT22;53450;42.584;23.366;2022-12-29T17:44:05;2.76;83.62
66594;DHT22;53450;42.584;23.366;2022-12-29T17:46:32;2.78;83.48
66594;DHT22;53450;42.584;23.366;2022-12-29T17:48:57;2.82;83.75
66594;DHT22;53450;42.584;23.366;2022-12-29T17:51:26;2.91;83.48
66594;DHT22;53450;42.584;23.366;2022-12-29T17:53:51;2.96;83.48
66594;DHT22;53450;42.584;23.366;2022-12-29T17:56:17;3.10;83.59
66594;DHT22;53450;42.584;23.366;2022-12-29T17:58:43;3.15;83.67
66594;DHT22;53450;42.584;23.366;2022-12-29T18:02:27;3.10;83.08
66594;DHT22;53450;42.584;23.366;2022-12-29T18:04:57;3.16;83.11
66594;DHT22;53450;42.584;23.366;2022-12-29T18:07:28;3.19;83.03
66594;DHT22;53450;42.584;23.366;2022-12-29T18:09:57;3.17;82.71
66594;DHT22;53450;42.584;23.366;2022-12-29T18:12:33;3.26;82.51
66594;DHT22;53450;42.584;23.366;2022-12-29T18:15:02;3.16;82.40
66594;DHT22;53450;42.584;23.366;2022-12-29T18:17:28;3.12;82.54
66594;DHT22;53450;42.584;23.366;2022-12-29T18:19:53;3.07;83.20
66594;DHT22;53450;42.584;23.366;2022-12-29T18:22:23;3.10;83.34
66594;DHT22;53450;42.584;23.366;2022-12-29T18:24:49;2.93;83.41
66594;DHT22;53450;42.584;23.366;2022-12-29T18:27:38;3.00;83.50
66594;DHT22;53450;42.584;23.366;2022-12-29T18:30:13;3.06;83.33
66594;DHT22;53450;42.584;23.366;2022-12-29T18:32:38;3.00;83.46
66594;DHT22;53450;42.584;23.366;2022-12-29T18:35:19;2.95;83.34
66594;DHT22;53450;42.584;23.366;2022-12-29T18:37:46;2.86;83.77
66594;DHT22;53450;42.584;23.366;2022-12-29T18:40:12;2.81;84.10
66594;DHT22;53450;42.584;23.366;2022-12-29T18:42:38;2.81;84.04
66594;DHT22;53450;42.584;23.366;2022-12-29T18:45:31;2.81;84.11